Double Springs, Alabama
Current Conditions -  °F | °C
As of 2:41 PM on Monday 22 Dec 2014 (Local Time) from K1M4 Reporting Station
Haze Haze  
Wind Chill: 10°   Ceiling: 300
Heat Index: 10°   Visibility: 1.7mi
Dew Point: 10°   Wind: 0mph
Humidity: 100%   Direction: NA
Pressure: 29.77"   Gusts: NA
Location:  34.15°N, 87.4°W
Report Text: K1M4 222041Z AUTO 00000KT 1 3/4SM BR OVC003 10/10 A2977 RMK AO2 $
Loading
Personal Weather Stations






























Interactive Weather Map New forecast layout! Learn more

10-Day Weather Forecast

Advertisements
Track Severe Weather on mobile